Tulsa, OK (74134)

8:14 AM CDT on August 30, 2016 (GMT -0500)
Belle Trace II at Battle Creek | | Change Station

Elev 810 ft 36.10 °N, 95.81 °W | Updated 29 seconds ago

Clear
Clear
77.5 °F
Feels Like 78 °F
N
0.2
Wind Variable Wind from NE
Gusts 2.5 mph

Today
High -- | Low -- °F
--% Chance of Precip.
Yesterday
High -- | Low -- °F
Precip. -- in
Pressure 30.09 in
Visibility 9.0 miles
Clouds Clear
Heat Index 78 °F
Dew Point 44 °F
Humidity 30%
Rainfall 0.00 in
Snow Depth Not available.
6:53 AM 7:52 PM
Waning Crescent, 4% visible
METAR KTUL 301253Z 32003KT 9SM CLR 23/22 A3011 RMK AO2 SLP190 T02280222
Pressure 30.09 in
Visibility 9.0 miles
Clouds Clear
Heat Index 78 °F
Dew Point 44 °F
Humidity 30%
Rainfall 0.00 in
Snow Depth Not available.
6:53 AM 7:52 PM
Waning Crescent, 4% visible
METAR KTUL 301253Z 32003KT 9SM CLR 23/22 A3011 RMK AO2 SLP190 T02280222

10-Day Weather Forecast

Almanac

Astronomy

Aug. 30, 2016 Rise Set
Actual Time
Civil Twilight
Nautical Twilight
Astronomical Twilight
Moon
Length of Visible Light
Length of Day
Tomorrow will be .
, % of the Moon is Illuminated

Today's Extremes

State Highs State Lows

Community

WunderPhotos

Upload Photos

1,935,831 photos uploaded!

WunderBlog® & News

Nearby

Air Quality

  Air Quality AQ Index Pollutant
Not available.

Snow Depth

Station Depth Elevation

Earthquake Activity

City Distance Mag. Time & Date
Minimum magnitude displayed is 2.5.

Coastal Water Temperatures

Place Temperature

Stations

Nearby Weather Stations

Station Location Temp. Windchill Dew Point Humidity Wind Precip. Elev Updated Type
                   

Watches & Warnings

There are currently no watches in effect.